Mahi Mahi — FAC4822 — position and weather

sailwx.info

Track history (hours):
 
Tides and Currents Weather Stations Pressure Air Temp Water Temp Dewpoint Dewpoint Depression Visibility Wind Speed Wind Dir Waves Ship Positions

Mahi Mahi

Last reported at 2018-Jun-21 10:48 UTC. Time now 2018-Jun-22 01:53 UTC.
Position N 46°09' W 001°10'.

Length 12 m.

Type: Sailing vessel. MMSI: 227290960.

Date/timePositionNaut miles runAvg speedWind from/ knotsBaromVisibWave heightAir tempDewpointWater temp
2018-Jun-21 10:48N 46°09' W 001°10'0 0.0
2018-Jun-21 10:30N 46°09' W 001°10'1 1.5
2018-Jun-21 10:00N 46°08' W 001°11'2 4.7
2018-Jun-21 09:30N 46°09' W 001°14'3 6.1
2018-Jun-21 08:59N 46°12' W 001°16'3 6.9
2018-Jun-21 08:30N 46°14' W 001°20'4 7.1
2018-Jun-21 08:00N 46°16' W 001°24'4 7.3
2018-Jun-21 07:30N 46°18' W 001°28'6 7.2
2018-Jun-21 06:38N 46°22' W 001°35'2 7.5
2018-Jun-21 06:25N 46°23' W 001°37'3 7.6
2018-Jun-21 06:00N 46°25' W 001°41'4 7.4
2018-Jun-21 05:30N 46°27' W 001°45'3 5.9
2018-Jun-21 05:00N 46°30' W 001°48'0 0.0
2018-Jun-20 16:14N 46°30' W 001°47'0 0.0
2018-Jun-20 12:15N 46°30' W 001°47'0 0.0
2018-Jun-20 12:00N 46°30' W 001°47'0 0.0
2018-Jun-19 12:15N 46°30' W 001°48'0 0.1
2018-Jun-19 12:00N 46°30' W 001°47'1 1.8
2018-Jun-19 11:30N 46°29' W 001°47'2 4.2
2018-Jun-19 11:00N 46°29' W 001°51'2 4.3
2018-Jun-19 10:31N 46°30' W 001°53'2 4.8
2018-Jun-19 10:00N 46°32' W 001°56'35 0.7
2018-Jun-17 07:49N 47°05' W 002°12'1 4.7
2018-Jun-17 07:30N 47°05' W 002°10'2 3.6
2018-Jun-17 06:49N 47°07' W 002°07'0 0.0
2018-Jun-16 18:24N 47°07' W 002°07'0 0.0
2018-Jun-16 18:00N 47°07' W 002°07'0 0.0
2018-Jun-16 17:17N 47°07' W 002°07'0 0.0
2018-Jun-15 20:42N 47°07' W 002°07'0 0.0
2018-Jun-15 20:15N 47°07' W 002°07'0 0.0
2018-Jun-15 19:27N 47°07' W 002°07'0 0.1
2018-Jun-15 13:13N 47°06' W 002°07'1 5.3
2018-Jun-15 12:59N 47°06' W 002°09'23 3.9
2018-Jun-15 07:13N 47°21' W 002°34'2 3.8
2018-Jun-15 06:48N 47°22' W 002°35'2 4.0
2018-Jun-15 06:23N 47°23' W 002°34'1 0.0
2018-Jun-14 07:12N 47°23' W 002°33'0 0.0
2018-Jun-14 07:00N 47°23' W 002°33'0 0.0
2018-Jun-14 06:24N 47°23' W 002°33'0 0.0
2018-Jun-13 13:39N 47°23' W 002°33'0 0.2
2018-Jun-13 13:29N 47°23' W 002°33'1 3.0
2018-Jun-13 13:00N 47°24' W 002°34'2 4.6
2018-Jun-13 12:30N 47°24' W 002°37'2 4.5
2018-Jun-13 12:00N 47°25' W 002°41'2 3.2
2018-Jun-13 11:30N 47°25' W 002°43'2 3.6
2018-Jun-13 10:59N 47°26' W 002°45'1 2.8
2018-Jun-13 10:28N 47°26' W 002°47'1 3.2
2018-Jun-13 10:00N 47°27' W 002°49'1 2.6
2018-Jun-13 09:30N 47°28' W 002°51'1 2.6
2018-Jun-13 09:00N 47°29' W 002°52'1 2.6
2018-Jun-13 08:30N 47°30' W 002°54'1 1.9
2018-Jun-13 08:00N 47°31' W 002°54'2 3.3
2018-Jun-13 07:30N 47°32' W 002°55'1 2.0
2018-Jun-13 06:59N 47°33' W 002°54'0 0.0
2018-Jun-12 16:18N 47°33' W 002°54'0 0.0
2018-Jun-12 16:00N 47°33' W 002°54'0 0.0
2018-Jun-12 15:30N 47°33' W 002°54'0 0.0
2018-Jun-12 15:00N 47°33' W 002°54'0 0.0
2018-Jun-11 13:39N 47°33' W 002°54'0 0.0
2018-Jun-11 13:30N 47°33' W 002°54'0 0.0
2018-Jun-11 13:00N 47°33' W 002°54'0 0.0
2018-Jun-11 12:31N 47°33' W 002°54'2 3.3
2018-Jun-11 12:00N 47°32' W 002°56'3 5.7
2018-Jun-11 11:31N 47°30' W 002°59'2 4.4
2018-Jun-11 11:01N 47°28' W 003°01'  
Track history (hours):
 
Tides and Currents Weather Stations Pressure Air Temp Water Temp Dewpoint Dewpoint Depression Visibility Wind Speed Wind Dir Waves Ship Positions

Mahi Mahi

Last reported at 2018-Jun-21 10:48 UTC. Time now 2018-Jun-22 01:53 UTC.
Position N 46°09' W 001°10'.

Length 12 m.

Type: Sailing vessel. MMSI: 227290960.

Date/timePositionNaut miles runAvg speedWind from/ knotsBaromVisibWave heightAir tempDewpointWater temp
2018-Jun-21 10:48N 46°09' W 001°10'0 0.0
2018-Jun-21 10:30N 46°09' W 001°10'1 1.5
2018-Jun-21 10:00N 46°08' W 001°11'2 4.7
2018-Jun-21 09:30N 46°09' W 001°14'3 6.1
2018-Jun-21 08:59N 46°12' W 001°16'3 6.9
2018-Jun-21 08:30N 46°14' W 001°20'4 7.1
2018-Jun-21 08:00N 46°16' W 001°24'4 7.3
2018-Jun-21 07:30N 46°18' W 001°28'6 7.2
2018-Jun-21 06:38N 46°22' W 001°35'2 7.5
2018-Jun-21 06:25N 46°23' W 001°37'3 7.6
2018-Jun-21 06:00N 46°25' W 001°41'4 7.4
2018-Jun-21 05:30N 46°27' W 001°45'3 5.9
2018-Jun-21 05:00N 46°30' W 001°48'0 0.0
2018-Jun-20 16:14N 46°30' W 001°47'0 0.0
2018-Jun-20 12:15N 46°30' W 001°47'0 0.0
2018-Jun-20 12:00N 46°30' W 001°47'0 0.0
2018-Jun-19 12:15N 46°30' W 001°48'0 0.1
2018-Jun-19 12:00N 46°30' W 001°47'1 1.8
2018-Jun-19 11:30N 46°29' W 001°47'2 4.2
2018-Jun-19 11:00N 46°29' W 001°51'2 4.3
2018-Jun-19 10:31N 46°30' W 001°53'2 4.8
2018-Jun-19 10:00N 46°32' W 001°56'35 0.7
2018-Jun-17 07:49N 47°05' W 002°12'1 4.7
2018-Jun-17 07:30N 47°05' W 002°10'2 3.6
2018-Jun-17 06:49N 47°07' W 002°07'0 0.0
2018-Jun-16 18:24N 47°07' W 002°07'0 0.0
2018-Jun-16 18:00N 47°07' W 002°07'0 0.0
2018-Jun-16 17:17N 47°07' W 002°07'0 0.0
2018-Jun-15 20:42N 47°07' W 002°07'0 0.0
2018-Jun-15 20:15N 47°07' W 002°07'0 0.0
2018-Jun-15 19:27N 47°07' W 002°07'0 0.1
2018-Jun-15 13:13N 47°06' W 002°07'1 5.3
2018-Jun-15 12:59N 47°06' W 002°09'23 3.9
2018-Jun-15 07:13N 47°21' W 002°34'2 3.8
2018-Jun-15 06:48N 47°22' W 002°35'2 4.0
2018-Jun-15 06:23N 47°23' W 002°34'1 0.0
2018-Jun-14 07:12N 47°23' W 002°33'0 0.0
2018-Jun-14 07:00N 47°23' W 002°33'0 0.0
2018-Jun-14 06:24N 47°23' W 002°33'0 0.0
2018-Jun-13 13:39N 47°23' W 002°33'0 0.2
2018-Jun-13 13:29N 47°23' W 002°33'1 3.0
2018-Jun-13 13:00N 47°24' W 002°34'2 4.6
2018-Jun-13 12:30N 47°24' W 002°37'2 4.5
2018-Jun-13 12:00N 47°25' W 002°41'2 3.2
2018-Jun-13 11:30N 47°25' W 002°43'2 3.6
2018-Jun-13 10:59N 47°26' W 002°45'1 2.8
2018-Jun-13 10:28N 47°26' W 002°47'1 3.2
2018-Jun-13 10:00N 47°27' W 002°49'1 2.6
2018-Jun-13 09:30N 47°28' W 002°51'1 2.6
2018-Jun-13 09:00N 47°29' W 002°52'1 2.6
2018-Jun-13 08:30N 47°30' W 002°54'1 1.9
2018-Jun-13 08:00N 47°31' W 002°54'2 3.3
2018-Jun-13 07:30N 47°32' W 002°55'1 2.0
2018-Jun-13 06:59N 47°33' W 002°54'0 0.0
2018-Jun-12 16:18N 47°33' W 002°54'0 0.0
2018-Jun-12 16:00N 47°33' W 002°54'0 0.0
2018-Jun-12 15:30N 47°33' W 002°54'0 0.0
2018-Jun-12 15:00N 47°33' W 002°54'0 0.0
2018-Jun-11 13:39N 47°33' W 002°54'0 0.0
2018-Jun-11 13:30N 47°33' W 002°54'0 0.0
2018-Jun-11 13:00N 47°33' W 002°54'0 0.0
2018-Jun-11 12:31N 47°33' W 002°54'2 3.3
2018-Jun-11 12:00N 47°32' W 002°56'3 5.7
2018-Jun-11 11:31N 47°30' W 002°59'2 4.4
2018-Jun-11 11:01N 47°28' W 003°01'  

Dump ship's entire track history